Time;durP1;ratioP1;P1;durP2;ratioP2;P2;SDS_P1;SDS_P2;PMS_P1;PMS_P2;Temp;Humidity;BMP_temperature;BMP_pressure;BME280_temperature;BME280_humidity;BME280_pressure;Samples;Min_cycle;Max_cycle;Signal;HPM_P1;HPM_P2
2022/12/27 00:00:52;;;;;;;6.95;2.53;;;;;;;;;;5054590;28;20052;-71
2022/12/27 00:03:22;;;;;;;7.28;2.13;;;;;;;;;;5049700;27;20068;-71
2022/12/27 00:05:48;;;;;;;7.47;1.77;;;;;;;;;;5086373;28;20052;-71
2022/12/27 00:08:16;;;;;;;7.50;2.22;;;;;;;;;;5022290;28;20058;-72
2022/12/27 00:10:43;;;;;;;6.75;2.42;;;;;;;;;;5048455;28;20059;-72
2022/12/27 00:13:10;;;;;;;5.07;2.25;;;;;;;;;;5064785;28;20052;-71
2022/12/27 00:15:37;;;;;;;6.50;1.92;;;;;;;;;;5056880;28;20083;-71
2022/12/27 00:18:04;;;;;;;8.68;2.88;;;;;;;;;;5035727;28;20138;-70
2022/12/27 00:20:31;;;;;;;8.43;2.35;;;;;;;;;;5044848;28;20052;-70
2022/12/27 00:22:59;;;;;;;4.93;2.25;;;;;;;;;;5060321;28;20132;-70
2022/12/27 00:25:27;;;;;;;6.97;2.40;;;;;;;;;;5058640;28;20177;-71
2022/12/27 00:27:55;;;;;;;7.03;2.42;;;;;;;;;;5052903;28;20052;-71
2022/12/27 00:30:22;;;;;;;4.85;2.00;;;;;;;;;;5054433;28;21546;-70
2022/12/27 00:32:48;;;;;;;8.57;2.25;;;;;;;;;;5021297;28;20064;-71
2022/12/27 00:35:15;;;;;;;5.53;1.83;;;;;;;;;;5029597;28;20059;-71
2022/12/27 00:37:41;;;;;;;10.30;2.30;;;;;;;;;;4988576;28;20053;-70
2022/12/27 00:40:09;;;;;;;6.20;2.58;;;;;;;;;;5020890;28;20045;-69
2022/12/27 00:42:36;;;;;;;7.65;2.53;;;;;;;;;;5019577;28;20045;-71
2022/12/27 00:45:04;;;;;;;12.00;2.30;;;;;;;;;;5040966;28;20063;-73
2022/12/27 00:47:31;;;;;;;6.63;2.45;;;;;;;;;;4966003;28;20092;-71
2022/12/27 00:49:58;;;;;;;9.45;2.13;;;;;;;;;;5046461;28;20063;-71
2022/12/27 00:52:24;;;;;;;7.93;2.35;;;;;;;;;;5007174;28;20115;-71
2022/12/27 00:54:51;;;;;;;7.97;2.28;;;;;;;;;;5012551;28;20053;-72
2022/12/27 00:57:18;;;;;;;7.35;2.42;;;;;;;;;;5001137;28;20053;-71
2022/12/27 00:59:46;;;;;;;9.68;2.50;;;;;;;;;;5028849;28;20063;-70
2022/12/27 01:02:13;;;;;;;7.28;2.10;;;;;;;;;;5030379;28;20048;-70
2022/12/27 01:04:39;;;;;;;7.57;2.33;;;;;;;;;;5043954;28;20080;-72
2022/12/27 01:07:06;;;;;;;8.55;2.53;;;;;;;;;;5006840;28;20045;-73
2022/12/27 01:09:33;;;;;;;8.63;2.72;;;;;;;;;;4970795;28;20986;-72
2022/12/27 01:12:00;;;;;;;6.20;2.10;;;;;;;;;;5022755;28;20090;-72
2022/12/27 01:14:27;;;;;;;10.07;2.50;;;;;;;;;;5048362;28;20062;-73
2022/12/27 01:16:55;;;;;;;9.57;2.30;;;;;;;;;;4981812;28;20049;-72
2022/12/27 01:19:22;;;;;;;5.53;2.45;;;;;;;;;;4929947;28;20171;-74
2022/12/27 01:21:49;;;;;;;5.30;2.13;;;;;;;;;;5019785;28;20053;-72
2022/12/27 01:24:15;;;;;;;8.13;2.58;;;;;;;;;;5019058;28;20064;-71
2022/12/27 01:26:42;;;;;;;7.03;2.00;;;;;;;;;;4989519;28;20054;-73
2022/12/27 01:29:11;;;;;;;6.03;2.10;;;;;;;;;;4916816;28;20050;-72
2022/12/27 01:31:38;;;;;;;8.82;2.55;;;;;;;;;;5039092;28;20056;-72
2022/12/27 01:34:06;;;;;;;6.63;2.53;;;;;;;;;;5050373;28;20228;-73
2022/12/27 01:36:34;;;;;;;8.85;2.80;;;;;;;;;;4972399;28;20054;-72
2022/12/27 01:39:01;;;;;;;6.70;2.07;;;;;;;;;;5002583;28;20265;-72
2022/12/27 01:44:31;;;;;;;4.90;2.00;;;;;;;;;;5033431;28;20057;-73
2022/12/27 01:46:58;;;;;;;6.70;2.28;;;;;;;;;;5015174;28;20090;-73
2022/12/27 01:49:26;;;;;;;8.85;2.63;;;;;;;;;;5021734;28;20052;-72
2022/12/27 01:51:53;;;;;;;8.15;2.55;;;;;;;;;;5008491;28;20048;-72
2022/12/27 01:54:23;;;;;;;8.57;2.80;;;;;;;;;;4937151;28;20045;-72
2022/12/27 01:56:50;;;;;;;9.18;2.28;;;;;;;;;;4937233;28;20117;-71
2022/12/27 01:59:17;;;;;;;6.75;2.25;;;;;;;;;;4980990;28;20119;-72
2022/12/27 02:01:44;;;;;;;6.03;2.30;;;;;;;;;;4996043;28;20069;-74
2022/12/27 02:04:12;;;;;;;8.23;2.85;;;;;;;;;;5012346;28;20059;-73
2022/12/27 02:06:41;;;;;;;7.03;2.10;;;;;;;;;;5047669;28;20056;-72
2022/12/27 02:09:07;;;;;;;;;;;;;;;;;;5025989;28;20124;-73
2022/12/27 02:11:52;;;;;;;4.38;1.95;;;;;;;;;;5031960;28;19925;-72
2022/12/27 02:14:20;;;;;;;9.35;2.33;;;;;;;;;;4996961;28;20064;-72
2022/12/27 02:16:47;;;;;;;7.45;2.08;;;;;;;;;;5036893;28;20052;-71
2022/12/27 02:19:18;;;;;;;6.05;2.30;;;;;;;;;;5020113;28;20052;-74
2022/12/27 02:21:56;;;;;;;11.52;2.40;;;;;;;;;;5039691;28;20059;-72
2022/12/27 02:24:21;;;;;;;;;;;;;;;;;;5052810;28;20145;-73
2022/12/27 02:26:51;;;;;;;5.90;2.10;;;;;;;;;;4997304;28;19944;-73
2022/12/27 02:29:41;;;;;;;5.32;1.92;;;;;;;;;;4988293;28;20065;-72
2022/12/27 02:32:12;;;;;;;5.15;2.10;;;;;;;;;;5039105;28;20053;-72
2022/12/27 02:34:49;;;;;;;5.90;2.08;;;;;;;;;;5034286;28;20415;-71
2022/12/27 02:37:18;;;;;;;6.50;2.05;;;;;;;;;;4997306;28;20052;-74
2022/12/27 02:39:47;;;;;;;5.43;1.83;;;;;;;;;;5068541;28;20076;-73
2022/12/27 02:53:32;;;;;;;8.88;2.00;;;;;;;;;;4963071;28;20054;-72
2022/12/27 02:58:59;;;;;;;8.68;2.33;;;;;;;;;;5009609;28;20200;-73
2022/12/27 03:04:25;;;;;;;4.60;2.08;;;;;;;;;;4959160;28;20044;-74
2022/12/27 03:06:54;;;;;;;5.30;1.90;;;;;;;;;;5046408;28;20049;-72
2022/12/27 03:17:52;;;;;;;5.65;1.80;;;;;;;;;;5036463;28;20126;-72
2022/12/27 03:25:51;;;;;;;4.28;1.67;;;;;;;;;;5003646;28;20060;-74
2022/12/27 03:34:30;;;;;;;8.15;1.98;;;;;;;;;;4933301;28;20061;-73
2022/12/27 03:39:44;;;;;;;5.78;1.70;;;;;;;;;;5037832;28;20056;-71
2022/12/27 03:44:59;;;;;;;;;;;;;;;;;;5038713;28;20051;-73
2022/12/27 03:47:29;;;;;;;6.57;1.95;;;;;;;;;;5050401;28;19921;-72
2022/12/27 03:50:00;;;;;;;6.60;1.75;;;;;;;;;;5055301;28;20067;-73
2022/12/27 03:52:31;;;;;;;7.65;1.90;;;;;;;;;;5059058;28;20056;-72
2022/12/27 03:54:58;;;;;;;4.63;1.85;;;;;;;;;;5013321;28;20048;-72
2022/12/27 03:57:26;;;;;;;7.63;2.88;;;;;;;;;;5050956;28;20060;-73
2022/12/27 03:59:53;;;;;;;9.87;2.07;;;;;;;;;;5052940;28;20051;-72
2022/12/27 04:02:20;;;;;;;6.97;2.33;;;;;;;;;;5045151;28;20037;-72
2022/12/27 04:04:47;;;;;;;4.68;2.00;;;;;;;;;;5051988;28;20052;-73
2022/12/27 04:07:14;;;;;;;5.63;1.83;;;;;;;;;;5038236;28;20052;-73
2022/12/27 04:37:05;;;;;;;6.93;1.80;;;;;;;;;;5013174;28;20053;-73
2022/12/27 04:39:32;;;;;;;6.78;3.10;;;;;;;;;;5035924;28;20052;-73
2022/12/27 04:55:44;;;;;;;6.78;2.13;;;;;;;;;;5024299;28;20056;-73
2022/12/27 04:58:12;;;;;;;6.10;1.90;;;;;;;;;;5060985;28;20052;-72
2022/12/27 05:03:23;;;;;;;5.78;2.25;;;;;;;;;;5033127;28;20052;-73
2022/12/27 05:05:51;;;;;;;6.75;2.08;;;;;;;;;;5021852;28;20061;-73
2022/12/27 05:16:35;;;;;;;7.28;2.10;;;;;;;;;;5032277;28;20052;-72
2022/12/27 05:19:02;;;;;;;6.72;1.85;;;;;;;;;;5033101;28;20072;-74
2022/12/27 05:21:34;;;;;;;4.57;1.98;;;;;;;;;;5029940;28;20052;-73
2022/12/27 05:26:45;;;;;;;6.43;2.20;;;;;;;;;;5018355;28;20052;-72
2022/12/27 05:29:14;;;;;;;8.27;2.38;;;;;;;;;;4997334;28;20049;-72
2022/12/27 05:31:40;;;;;;;8.70;2.38;;;;;;;;;;5016516;28;20053;-72
2022/12/27 05:34:07;;;;;;;6.20;2.00;;;;;;;;;;5039816;28;20163;-72
2022/12/27 05:36:34;;;;;;;6.78;1.90;;;;;;;;;;5039849;28;20052;-72
2022/12/27 05:39:10;;;;;;;5.70;2.00;;;;;;;;;;5030401;28;20057;-72
2022/12/27 05:41:37;;;;;;;7.47;2.38;;;;;;;;;;5036945;28;20077;-73
2022/12/27 05:44:04;;;;;;;6.20;2.20;;;;;;;;;;5025550;28;20052;-73
2022/12/27 05:46:32;;;;;;;7.20;2.25;;;;;;;;;;5032945;28;20052;-73
2022/12/27 05:48:59;;;;;;;6.13;2.25;;;;;;;;;;5041235;28;20144;-73
2022/12/27 05:51:25;;;;;;;6.15;1.90;;;;;;;;;;5051220;28;20064;-72
2022/12/27 05:53:52;;;;;;;5.13;2.00;;;;;;;;;;5045743;28;20136;-72
2022/12/27 05:56:20;;;;;;;9.35;2.42;;;;;;;;;;5036402;28;20114;-71
2022/12/27 05:58:46;;;;;;;7.13;1.95;;;;;;;;;;5029824;28;20057;-72
2022/12/27 06:01:14;;;;;;;7.72;2.13;;;;;;;;;;5041106;28;20076;-72
2022/12/27 06:03:43;;;;;;;5.15;2.00;;;;;;;;;;5014039;28;20041;-72
2022/12/27 06:06:10;;;;;;;7.90;2.40;;;;;;;;;;5008498;28;20103;-73
2022/12/27 06:08:37;;;;;;;6.53;2.47;;;;;;;;;;5010839;28;20087;-72
2022/12/27 06:11:05;;;;;;;8.85;2.17;;;;;;;;;;5040798;28;20132;-72
2022/12/27 06:13:32;;;;;;;5.75;1.92;;;;;;;;;;5016439;28;20232;-72
2022/12/27 06:16:00;;;;;;;5.10;1.55;;;;;;;;;;5028422;28;20052;-72
2022/12/27 06:18:28;;;;;;;5.57;1.95;;;;;;;;;;5026748;28;20080;-72
2022/12/27 06:21:00;;;;;;;8.98;2.30;;;;;;;;;;5050194;28;20052;-73
2022/12/27 06:23:27;;;;;;;7.00;2.33;;;;;;;;;;5015208;28;20103;-72
2022/12/27 06:25:53;;;;;;;7.13;2.10;;;;;;;;;;5039837;28;20056;-72
2022/12/27 06:28:20;;;;;;;6.25;2.47;;;;;;;;;;5039366;28;20060;-72
2022/12/27 06:30:46;;;;;;;12.15;2.10;;;;;;;;;;5041647;28;20052;-72
2022/12/27 06:33:13;;;;;;;9.02;2.30;;;;;;;;;;5051255;28;20056;-73
2022/12/27 06:35:40;;;;;;;10.52;2.35;;;;;;;;;;5041585;28;20114;-72
2022/12/27 06:38:08;;;;;;;8.60;2.33;;;;;;;;;;5045867;28;20406;-72
2022/12/27 06:40:35;;;;;;;6.30;2.10;;;;;;;;;;5046264;28;20063;-72
2022/12/27 06:43:01;;;;;;;5.57;2.33;;;;;;;;;;5056729;28;20136;-72
2022/12/27 06:45:29;;;;;;;7.63;1.90;;;;;;;;;;5005705;28;20297;-73
2022/12/27 06:47:56;;;;;;;9.32;1.90;;;;;;;;;;5018119;28;20060;-72
2022/12/27 06:50:23;;;;;;;9.45;2.13;;;;;;;;;;5032532;28;20061;-73
2022/12/27 06:52:50;;;;;;;7.22;2.28;;;;;;;;;;5026830;28;20080;-72
2022/12/27 06:55:18;;;;;;;8.70;2.20;;;;;;;;;;5022784;28;20075;-72
2022/12/27 06:57:44;;;;;;;5.20;1.70;;;;;;;;;;5034803;28;20077;-72
2022/12/27 07:00:12;;;;;;;6.90;1.70;;;;;;;;;;5035912;28;20052;-73
2022/12/27 07:02:38;;;;;;;9.32;1.98;;;;;;;;;;5017504;28;20056;-72
2022/12/27 07:05:06;;;;;;;6.57;1.90;;;;;;;;;;5044220;28;20059;-73
2022/12/27 07:07:33;;;;;;;7.07;1.85;;;;;;;;;;5028701;28;20048;-73
2022/12/27 07:10:00;;;;;;;8.80;2.03;;;;;;;;;;5053992;28;20052;-72
2022/12/27 07:12:28;;;;;;;11.60;2.15;;;;;;;;;;5033942;28;20136;-72
2022/12/27 07:14:55;;;;;;;5.95;2.22;;;;;;;;;;5032863;28;20218;-73
2022/12/27 07:17:22;;;;;;;5.70;2.00;;;;;;;;;;5037011;28;20056;-72
2022/12/27 07:19:49;;;;;;;4.45;1.80;;;;;;;;;;5037476;28;20135;-72
2022/12/27 07:22:16;;;;;;;9.38;2.00;;;;;;;;;;5049088;28;20084;-72
2022/12/27 07:24:42;;;;;;;7.28;1.98;;;;;;;;;;4992042;28;20107;-73
2022/12/27 07:27:09;;;;;;;6.32;2.10;;;;;;;;;;5052801;28;20456;-73
2022/12/27 07:29:38;;;;;;;5.60;2.08;;;;;;;;;;5048980;28;20068;-72
2022/12/27 07:32:05;;;;;;;5.35;2.00;;;;;;;;;;5050450;28;20122;-71
2022/12/27 07:34:32;;;;;;;8.45;1.98;;;;;;;;;;5023263;28;20057;-72
2022/12/27 07:36:58;;;;;;;4.68;1.73;;;;;;;;;;5031563;28;20045;-72
2022/12/27 07:39:27;;;;;;;5.45;2.00;;;;;;;;;;4993083;28;20318;-72
2022/12/27 07:41:54;;;;;;;7.32;1.60;;;;;;;;;;5017683;28;20049;-73
2022/12/27 07:44:23;;;;;;;6.93;1.63;;;;;;;;;;5014694;28;20053;-71
2022/12/27 07:46:52;;;;;;;3.70;1.75;;;;;;;;;;5026898;28;20057;-71
2022/12/27 07:49:18;;;;;;;3.72;1.50;;;;;;;;;;5001241;28;20057;-72
2022/12/27 07:51:45;;;;;;;6.63;1.90;;;;;;;;;;5018154;28;20061;-72
2022/12/27 07:54:19;;;;;;;4.80;1.70;;;;;;;;;;5005013;28;20136;-72
2022/12/27 07:56:46;;;;;;;6.10;2.15;;;;;;;;;;5020181;28;20053;-74
2022/12/27 07:59:21;;;;;;;3.78;1.73;;;;;;;;;;5029667;28;20048;-72
2022/12/27 08:04:37;;;;;;;7.22;1.92;;;;;;;;;;4979965;28;20040;-72
2022/12/27 08:07:06;;;;;;;5.85;2.00;;;;;;;;;;5006121;28;20068;-72
2022/12/27 08:09:37;;;;;;;6.70;2.33;;;;;;;;;;5011141;28;21140;-71
2022/12/27 08:12:05;;;;;;;5.07;1.85;;;;;;;;;;5030737;28;20079;-72
2022/12/27 08:14:35;;;;;;;6.20;1.88;;;;;;;;;;5019102;28;20060;-72
2022/12/27 08:17:05;;;;;;;5.88;1.83;;;;;;;;;;5037437;28;20056;-72
2022/12/27 08:19:31;;;;;;;6.25;2.40;;;;;;;;;;5019418;28;20053;-71
2022/12/27 08:22:00;;;;;;;5.47;1.95;;;;;;;;;;5022670;28;20059;-72
2022/12/27 08:24:27;;;;;;;5.18;2.17;;;;;;;;;;5015516;28;20054;-72
2022/12/27 08:26:57;;;;;;;8.48;2.75;;;;;;;;;;5031447;28;20141;-72
2022/12/27 08:29:26;;;;;;;5.20;2.00;;;;;;;;;;5028129;28;20045;-71
2022/12/27 08:31:53;;;;;;;6.45;2.17;;;;;;;;;;5061273;28;20052;-72
2022/12/27 08:34:20;;;;;;;10.05;2.50;;;;;;;;;;5040142;28;20071;-72
2022/12/27 08:36:47;;;;;;;7.63;1.80;;;;;;;;;;5039375;28;20151;-72
2022/12/27 08:39:15;;;;;;;5.70;2.08;;;;;;;;;;5044630;28;20085;-72
2022/12/27 08:41:42;;;;;;;4.38;1.80;;;;;;;;;;5049374;28;20048;-72
2022/12/27 08:44:14;;;;;;;9.50;2.20;;;;;;;;;;5029895;28;20053;-73
2022/12/27 08:46:41;;;;;;;6.25;2.28;;;;;;;;;;5019501;28;20061;-72
2022/12/27 08:49:12;;;;;;;7.18;2.15;;;;;;;;;;5048755;28;20076;-71
2022/12/27 08:51:39;;;;;;;8.30;2.22;;;;;;;;;;5017894;28;20059;-73
2022/12/27 08:54:06;;;;;;;6.18;2.00;;;;;;;;;;5031647;28;20056;-73
2022/12/27 08:56:34;;;;;;;10.70;2.22;;;;;;;;;;5046288;28;20068;-73
2022/12/27 08:59:01;;;;;;;8.07;2.45;;;;;;;;;;5054991;28;20048;-72
2022/12/27 09:01:28;;;;;;;4.75;2.00;;;;;;;;;;5043820;28;20056;-72
2022/12/27 09:03:55;;;;;;;4.47;2.10;;;;;;;;;;5016433;28;20137;-73
2022/12/27 09:06:22;;;;;;;5.25;2.30;;;;;;;;;;5069562;28;20048;-71
2022/12/27 09:08:50;;;;;;;5.03;2.03;;;;;;;;;;5042865;28;20048;-72
2022/12/27 09:11:19;;;;;;;5.28;1.75;;;;;;;;;;5014301;28;20120;-72
2022/12/27 09:13:47;;;;;;;5.72;2.20;;;;;;;;;;4999674;28;20057;-72
2022/12/27 09:16:15;;;;;;;5.25;1.83;;;;;;;;;;5012553;28;20053;-72
2022/12/27 09:18:42;;;;;;;5.43;2.28;;;;;;;;;;5035078;28;20068;-72
2022/12/27 09:21:11;;;;;;;6.32;2.13;;;;;;;;;;5048626;28;20045;-73
2022/12/27 09:23:39;;;;;;;7.10;2.15;;;;;;;;;;5009022;28;20083;-72
2022/12/27 09:26:06;;;;;;;7.18;2.08;;;;;;;;;;5031391;28;20045;-72
2022/12/27 09:28:33;;;;;;;6.70;1.98;;;;;;;;;;5019671;28;20059;-73
2022/12/27 09:31:01;;;;;;;6.60;2.10;;;;;;;;;;5035863;28;20068;-72
2022/12/27 09:33:28;;;;;;;5.97;2.00;;;;;;;;;;5021767;28;20263;-72
2022/12/27 09:36:00;;;;;;;6.07;2.00;;;;;;;;;;5039731;28;20115;-71
2022/12/27 09:38:27;;;;;;;6.28;2.28;;;;;;;;;;5015811;28;20120;-72
2022/12/27 09:40:55;;;;;;;7.88;2.58;;;;;;;;;;5020340;28;20122;-73
2022/12/27 09:43:24;;;;;;;7.47;2.17;;;;;;;;;;5020177;28;20059;-73
2022/12/27 09:45:54;;;;;;;6.15;2.30;;;;;;;;;;5019164;28;20052;-72
2022/12/27 09:48:27;;;;;;;5.60;1.98;;;;;;;;;;4994930;28;20045;-72
2022/12/27 09:50:55;;;;;;;6.90;2.20;;;;;;;;;;5030472;28;20056;-71
2022/12/27 09:53:25;;;;;;;6.18;2.08;;;;;;;;;;5007106;28;20085;-73
2022/12/27 09:55:53;;;;;;;5.53;1.88;;;;;;;;;;5030948;28;20093;-71
2022/12/27 09:58:31;;;;;;;10.38;1.98;;;;;;;;;;5041689;28;20080;-72
2022/12/27 10:01:01;;;;;;;5.40;2.05;;;;;;;;;;5046033;28;20052;-72
2022/12/27 10:03:30;;;;;;;6.93;1.95;;;;;;;;;;5022248;28;20057;-73
2022/12/27 10:06:01;;;;;;;5.93;2.20;;;;;;;;;;5032582;28;20080;-73
2022/12/27 10:08:36;;;;;;;9.25;2.10;;;;;;;;;;5038595;28;20052;-72
2022/12/27 10:11:34;;;;;;;5.22;2.05;;;;;;;;;;5046119;28;20048;-72
2022/12/27 10:13:57;;;;;;;3.95;1.85;;;;;;;;;;5026317;28;20057;-72
2022/12/27 10:16:28;;;;;;;7.03;2.05;;;;;;;;;;5013164;28;20063;-73
2022/12/27 10:19:09;;;;;;;4.18;1.95;;;;;;;;;;5023038;28;20045;-72
2022/12/27 10:21:43;;;;;;;6.60;2.20;;;;;;;;;;5052519;28;20052;-72
2022/12/27 10:24:16;;;;;;;7.65;2.10;;;;;;;;;;4999950;28;20143;-73
2022/12/27 10:26:43;;;;;;;5.68;2.05;;;;;;;;;;5038000;28;20418;-71
2022/12/27 10:29:14;;;;;;;7.35;2.50;;;;;;;;;;5044970;28;20040;-73
2022/12/27 10:31:42;;;;;;;9.02;2.30;;;;;;;;;;5051770;28;20064;-72
2022/12/27 10:34:16;;;;;;;5.38;1.90;;;;;;;;;;5028270;28;20149;-72
2022/12/27 10:36:44;;;;;;;7.22;2.70;;;;;;;;;;5036968;28;20056;-72
2022/12/27 10:39:15;;;;;;;5.70;2.20;;;;;;;;;;5043226;28;20044;-72
2022/12/27 10:41:49;;;;;;;7.00;2.28;;;;;;;;;;5046060;28;20111;-71
2022/12/27 10:44:16;;;;;;;6.72;2.20;;;;;;;;;;5045599;28;20053;-71
2022/12/27 10:46:44;;;;;;;6.22;2.45;;;;;;;;;;5055231;28;20045;-71
2022/12/27 10:49:22;;;;;;;6.25;2.53;;;;;;;;;;5028707;28;20056;-70
2022/12/27 10:51:49;;;;;;;8.27;2.38;;;;;;;;;;5054306;28;20052;-71
2022/12/27 10:54:19;;;;;;;6.60;2.88;;;;;;;;;;5032546;28;20048;-71
2022/12/27 10:56:46;;;;;;;7.63;2.38;;;;;;;;;;5003585;28;20055;-71
2022/12/27 10:59:15;;;;;;;8.13;2.38;;;;;;;;;;5019947;28;20061;-70
2022/12/27 11:01:45;;;;;;;6.85;2.50;;;;;;;;;;5036417;28;20045;-70
2022/12/27 11:04:13;;;;;;;8.30;2.53;;;;;;;;;;5015378;28;20068;-72
2022/12/27 11:06:42;;;;;;;6.38;2.58;;;;;;;;;;5046676;28;20087;-70
2022/12/27 11:09:32;;;;;;;5.85;2.42;;;;;;;;;;5042088;28;20048;-72
2022/12/27 11:12:14;;;;;;;5.38;2.63;;;;;;;;;;5019953;28;20053;-71
2022/12/27 11:14:53;;;;;;;9.27;2.60;;;;;;;;;;5039136;28;20045;-71
2022/12/27 11:17:21;;;;;;;12.05;2.78;;;;;;;;;;5011093;28;20056;-71
2022/12/27 11:19:49;;;;;;;9.55;2.70;;;;;;;;;;5053889;28;20048;-72
2022/12/27 11:22:18;;;;;;;7.85;2.83;;;;;;;;;;5042819;28;20052;-71
2022/12/27 11:24:44;;;;;;;;;;;;;;;;;;5034372;28;20402;-71
2022/12/27 11:27:19;;;;;;;5.88;2.40;;;;;;;;;;5027824;28;19947;-71
2022/12/27 11:29:46;;;;;;;5.22;2.90;;;;;;;;;;5034449;28;20208;-70
2022/12/27 11:32:13;;;;;;;6.90;2.65;;;;;;;;;;5024938;28;20115;-71
2022/12/27 11:34:44;;;;;;;8.32;3.30;;;;;;;;;;5018269;28;20131;-73
2022/12/27 11:37:14;;;;;;;6.15;2.67;;;;;;;;;;5017068;28;20073;-71
2022/12/27 11:39:45;;;;;;;8.73;2.65;;;;;;;;;;4948785;28;20165;-72
2022/12/27 11:49:35;;;;;;;8.80;3.60;;;;;;;;;;4895605;28;20051;-71
2022/12/27 11:52:02;;;;;;;;;;;;;;;;;;4925235;28;20051;-71
2022/12/27 11:54:38;;;;;;;8.98;2.65;;;;;;;;;;4964454;28;19925;-71
2022/12/27 11:57:14;;;;;;;6.85;2.75;;;;;;;;;;4991278;28;20053;-72
2022/12/27 11:59:50;;;;;;;6.55;2.55;;;;;;;;;;4953055;28;21213;-71
2022/12/27 12:02:37;;;;;;;8.13;3.17;;;;;;;;;;4958188;28;20053;-71
2022/12/27 12:05:23;;;;;;;6.57;2.38;;;;;;;;;;4904879;28;20045;-71
2022/12/27 12:08:04;;;;;;;7.65;2.67;;;;;;;;;;4953687;28;20045;-71
2022/12/27 12:10:35;;;;;;;9.13;2.90;;;;;;;;;;4950926;28;20073;-71
2022/12/27 12:13:16;;;;;;;11.52;2.90;;;;;;;;;;4957351;28;20053;-71
2022/12/27 12:16:04;;;;;;;7.30;2.53;;;;;;;;;;5033109;28;20068;-69
2022/12/27 12:18:38;;;;;;;8.30;3.17;;;;;;;;;;5030223;28;20140;-72
2022/12/27 12:21:21;;;;;;;7.00;2.63;;;;;;;;;;5010178;28;20135;-70
2022/12/27 12:24:00;;;;;;;7.13;2.53;;;;;;;;;;4952036;28;20118;-72
2022/12/27 12:26:32;;;;;;;6.85;2.63;;;;;;;;;;4960540;28;20053;-71
2022/12/27 12:29:13;;;;;;;5.05;2.50;;;;;;;;;;5014396;28;20048;-71
2022/12/27 12:32:08;;;;;;;7.25;2.67;;;;;;;;;;5003607;28;20061;-71
2022/12/27 12:34:48;;;;;;;9.07;2.55;;;;;;;;;;5003309;28;20092;-71
2022/12/27 12:37:26;;;;;;;5.80;2.25;;;;;;;;;;5026556;28;20103;-72
2022/12/27 12:40:10;;;;;;;5.65;2.25;;;;;;;;;;5013213;28;20060;-71
2022/12/27 12:42:42;;;;;;;6.43;2.55;;;;;;;;;;4932398;28;20061;-71
2022/12/27 12:45:24;;;;;;;6.88;2.63;;;;;;;;;;4863616;28;20115;-72
2022/12/27 12:48:19;;;;;;;5.90;2.22;;;;;;;;;;4918052;28;20059;-71
2022/12/27 12:51:00;;;;;;;5.03;2.13;;;;;;;;;;4957832;28;20145;-70
2022/12/27 12:53:36;;;;;;;6.72;2.17;;;;;;;;;;4980230;28;20255;-71
2022/12/27 12:56:11;;;;;;;10.18;2.63;;;;;;;;;;5015830;28;20182;-70
2022/12/27 12:58:46;;;;;;;5.37;1.83;;;;;;;;;;5041792;28;20045;-71
2022/12/27 13:01:25;;;;;;;10.35;2.63;;;;;;;;;;4985636;28;20142;-72
2022/12/27 14:40:47;;;;;;;5.68;1.80;;;;;;;;;;6195156;22;1554918;-71
2022/12/27 14:43:32;;;;;;;4.93;2.08;;;;;;;;;;6137427;23;20029;-72
2022/12/27 14:46:15;;;;;;;5.18;2.00;;;;;;;;;;6035711;23;20051;-71
2022/12/27 14:49:08;;;;;;;6.55;1.98;;;;;;;;;;6064008;23;20472;-72
2022/12/27 14:52:13;;;;;;;4.25;1.90;;;;;;;;;;6058664;23;20029;-71
2022/12/27 14:57:37;;;;;;;7.10;2.47;;;;;;;;;;5957018;23;20149;-71
2022/12/27 15:00:36;;;;;;;6.75;2.20;;;;;;;;;;5994869;23;20113;-71
2022/12/27 15:03:36;;;;;;;4.97;1.88;;;;;;;;;;5979113;23;20041;-71
2022/12/27 15:06:15;;;;;;;3.92;1.60;;;;;;;;;;6083759;23;20067;-71
2022/12/27 15:08:51;;;;;;;5.10;1.92;;;;;;;;;;6122590;23;20041;-71
2022/12/27 15:14:32;;;;;;;6.07;2.20;;;;;;;;;;6115846;23;20029;-71
2022/12/27 15:17:11;;;;;;;4.53;1.90;;;;;;;;;;6076272;23;20033;-71
2022/12/27 15:20:05;;;;;;;4.70;1.83;;;;;;;;;;6087205;23;20025;-71
2022/12/27 15:22:46;;;;;;;5.82;1.85;;;;;;;;;;6127806;23;20068;-71
2022/12/27 15:25:23;;;;;;;5.43;2.03;;;;;;;;;;6052908;23;21387;-72
2022/12/27 15:28:03;;;;;;;6.55;2.10;;;;;;;;;;6140045;23;20144;-71
2022/12/27 15:30:36;;;;;;;4.70;1.70;;;;;;;;;;6120183;23;20040;-72
2022/12/27 15:33:25;;;;;;;6.30;2.08;;;;;;;;;;6080027;23;20022;-71
2022/12/27 15:35:56;;;;;;;6.13;2.08;;;;;;;;;;6071863;23;20044;-71
2022/12/27 15:38:40;;;;;;;8.52;2.28;;;;;;;;;;6125636;23;20259;-71
2022/12/27 15:41:20;;;;;;;3.83;1.65;;;;;;;;;;6115729;23;20094;-71
2022/12/27 15:44:27;;;;;;;7.78;2.17;;;;;;;;;;6124984;23;20096;-71
2022/12/27 15:47:32;;;;;;;4.40;1.20;;;;;;;;;;6115864;23;20024;-71
2022/12/27 15:50:25;;;;;;;6.30;2.28;;;;;;;;;;6086202;23;20024;-71
2022/12/27 15:53:17;;;;;;;5.15;1.92;;;;;;;;;;6078938;23;20390;-72
2022/12/27 15:56:05;;;;;;;10.00;2.42;;;;;;;;;;6079324;23;20031;-70
2022/12/27 15:58:59;;;;;;;4.28;1.85;;;;;;;;;;6118176;23;20021;-71
2022/12/27 16:01:46;;;;;;;4.45;1.90;;;;;;;;;;6090254;23;20082;-71
2022/12/27 16:04:52;;;;;;;7.90;2.10;;;;;;;;;;6013802;23;20022;-71
2022/12/27 16:10:33;;;;;;;6.22;1.98;;;;;;;;;;6007903;23;20034;-71
2022/12/27 16:13:33;;;;;;;;;;;;;;;;;;;;;
2022/12/27 16:16:08;;;;;;;4.20;2.13;;;;;;;;;;6056288;23;20095;-71
2022/12/27 16:19:05;;;;;;;7.70;2.05;;;;;;;;;;6115369;23;20038;-71
2022/12/27 16:21:58;;;;;;;6.28;1.83;;;;;;;;;;6147126;23;20103;-71
2022/12/27 16:24:39;;;;;;;7.63;2.00;;;;;;;;;;6068699;23;20116;-71
2022/12/27 16:27:38;;;;;;;6.75;2.08;;;;;;;;;;6018631;23;20100;-71
2022/12/27 16:43:39;;;;;;;7.22;1.92;;;;;;;;;;6108055;23;20432;-71
2022/12/27 16:46:36;;;;;;;4.13;1.75;;;;;;;;;;6080081;23;20209;-71
2022/12/27 16:49:31;;;;;;;5.97;2.03;;;;;;;;;;6149902;23;20025;-71
2022/12/27 16:52:21;;;;;;;4.50;1.70;;;;;;;;;;6129183;23;20028;-71
2022/12/27 16:55:21;;;;;;;5.38;2.00;;;;;;;;;;6088301;23;20280;-71
2022/12/27 17:08:41;;;;;;;3.47;1.65;;;;;;;;;;5857918;23;20081;-71
2022/12/27 19:20:02;;;;;;;6.10;2.05;;;;;;;;;;5950006;22;4278632;-71
2022/12/27 19:22:37;;;;;;;6.30;2.42;;;;;;;;;;6107640;23;20100;-72
2022/12/27 19:27:59;;;;;;;6.15;2.08;;;;;;;;;;6135289;23;20035;-72
2022/12/27 19:33:42;;;;;;;7.88;2.53;;;;;;;;;;6050166;23;20096;-73
2022/12/27 19:36:16;;;;;;;5.63;1.88;;;;;;;;;;6108251;23;20099;-72
2022/12/27 19:42:30;;;;;;;5.50;1.73;;;;;;;;;;6070512;23;20117;-72
2022/12/27 19:45:22;;;;;;;;;;;;;;;;;;;;;
2022/12/27 19:53:39;;;;;;;4.60;1.50;;;;;;;;;;6023637;23;20210;-72
2022/12/27 19:56:26;;;;;;;4.90;1.55;;;;;;;;;;5977922;23;20059;-72
2022/12/27 23:54:58;;;;;;;5.32;1.58;;;;;;;;;;6251203;22;20028;-70
2022/12/27 23:57:24;;;;;;;4.07;1.90;;;;;;;;;;6157296;23;20028;-70
2022/12/27 23:59:54;;;;;;;4.03;1.77;;;;;;;;;;6187239;22;20027;-71
